Terminal Aerodrome Forecast
Issued by NWS Albany, NY

Home | Current Version | Previous Version | Text Only | Print | Product List | Glossary On
Versions: 1 2 3 4 5 6 7 8 9 10 11 12 13 14 15 16
000
FTUS41 KALY 260520
TAFALB
TAF
KALB 260520Z 2606/2706 33005KT P6SM BKN070
     FM261400 33007KT P6SM OVC060
     FM270100 30004KT P6SM VCSH OVC060=

USA.gov is the U.S. government's official web portal to all federal, state and local government web resources and services.